sensor_id;sensor_type;location;lat;lon;timestamp;pressure;altitude;pressure_sealevel;temperature
68743;BMP180;55725;42.758;26.702;2022-07-06T00:01:12;99132.00;;;16.30
68743;BMP180;55725;42.758;26.702;2022-07-06T00:02:52;99127.00;;;16.20
68743;BMP180;55725;42.758;26.702;2022-07-06T00:04:33;99125.00;;;16.20
68743;BMP180;55725;42.758;26.702;2022-07-06T00:06:13;99128.00;;;16.20
68743;BMP180;55725;42.758;26.702;2022-07-06T00:07:53;99117.00;;;15.60
68743;BMP180;55725;42.758;26.702;2022-07-06T00:09:34;99114.00;;;16.10
68743;BMP180;55725;42.758;26.702;2022-07-06T00:11:14;99109.00;;;15.90
68743;BMP180;55725;42.758;26.702;2022-07-06T00:12:54;99108.00;;;16.30
68743;BMP180;55725;42.758;26.702;2022-07-06T00:14:35;99102.00;;;16.20
68743;BMP180;55725;42.758;26.702;2022-07-06T00:16:15;99097.00;;;16.20
68743;BMP180;55725;42.758;26.702;2022-07-06T00:17:56;99093.00;;;16.20
68743;BMP180;55725;42.758;26.702;2022-07-06T00:19:36;99089.00;;;16.20
68743;BMP180;55725;42.758;26.702;2022-07-06T00:21:16;99096.00;;;16.10
68743;BMP180;55725;42.758;26.702;2022-07-06T00:22:57;99090.00;;;16.10
68743;BMP180;55725;42.758;26.702;2022-07-06T00:24:37;99099.00;;;16.10
68743;BMP180;55725;42.758;26.702;2022-07-06T00:26:18;99085.00;;;16.00
68743;BMP180;55725;42.758;26.702;2022-07-06T00:27:58;99093.00;;;15.80
68743;BMP180;55725;42.758;26.702;2022-07-06T00:29:39;99087.00;;;15.80
68743;BMP180;55725;42.758;26.702;2022-07-06T00:31:23;99095.00;;;15.70
68743;BMP180;55725;42.758;26.702;2022-07-06T00:33:04;99084.00;;;15.80
68743;BMP180;55725;42.758;26.702;2022-07-06T00:34:44;99088.00;;;15.70
68743;BMP180;55725;42.758;26.702;2022-07-06T00:36:24;99091.00;;;15.50
68743;BMP180;55725;42.758;26.702;2022-07-06T00:38:05;99096.00;;;15.40
68743;BMP180;55725;42.758;26.702;2022-07-06T00:39:45;99095.00;;;15.60
68743;BMP180;55725;42.758;26.702;2022-07-06T00:41:25;99082.00;;;16.00
68743;BMP180;55725;42.758;26.702;2022-07-06T00:43:06;99095.00;;;15.90
68743;BMP180;55725;42.758;26.702;2022-07-06T00:44:46;99100.00;;;15.70
68743;BMP180;55725;42.758;26.702;2022-07-06T00:46:27;99093.00;;;15.80
68743;BMP180;55725;42.758;26.702;2022-07-06T00:48:08;99093.00;;;16.00
68743;BMP180;55725;42.758;26.702;2022-07-06T00:49:48;99093.00;;;16.00
68743;BMP180;55725;42.758;26.702;2022-07-06T00:51:47;99094.00;;;16.00
68743;BMP180;55725;42.758;26.702;2022-07-06T00:53:28;99095.00;;;15.80
68743;BMP180;55725;42.758;26.702;2022-07-06T00:55:09;99096.00;;;15.70
68743;BMP180;55725;42.758;26.702;2022-07-06T00:56:49;99095.00;;;15.60
68743;BMP180;55725;42.758;26.702;2022-07-06T00:58:31;99100.00;;;15.80
68743;BMP180;55725;42.758;26.702;2022-07-06T01:00:12;99094.00;;;15.80
68743;BMP180;55725;42.758;26.702;2022-07-06T01:01:52;99089.00;;;15.80
68743;BMP180;55725;42.758;26.702;2022-07-06T01:03:33;99084.00;;;15.40
68743;BMP180;55725;42.758;26.702;2022-07-06T01:05:14;99084.00;;;15.50
68743;BMP180;55725;42.758;26.702;2022-07-06T01:06:55;99089.00;;;15.50
68743;BMP180;55725;42.758;26.702;2022-07-06T01:08:37;99084.00;;;15.90
68743;BMP180;55725;42.758;26.702;2022-07-06T01:10:18;99072.00;;;15.40
68743;BMP180;55725;42.758;26.702;2022-07-06T01:11:59;99082.00;;;15.30
68743;BMP180;55725;42.758;26.702;2022-07-06T01:13:39;99072.00;;;15.50
68743;BMP180;55725;42.758;26.702;2022-07-06T01:15:21;99077.00;;;15.80
68743;BMP180;55725;42.758;26.702;2022-07-06T01:17:02;99076.00;;;15.40
68743;BMP180;55725;42.758;26.702;2022-07-06T01:18:42;99076.00;;;15.20
68743;BMP180;55725;42.758;26.702;2022-07-06T01:20:23;99079.00;;;15.10
68743;BMP180;55725;42.758;26.702;2022-07-06T01:22:04;99079.00;;;15.10
68743;BMP180;55725;42.758;26.702;2022-07-06T01:23:45;99080.00;;;15.60
68743;BMP180;55725;42.758;26.702;2022-07-06T01:25:26;99078.00;;;15.30
68743;BMP180;55725;42.758;26.702;2022-07-06T01:27:06;99079.00;;;15.50
68743;BMP180;55725;42.758;26.702;2022-07-06T01:28:48;99084.00;;;15.00
68743;BMP180;55725;42.758;26.702;2022-07-06T01:30:29;99075.00;;;15.10
68743;BMP180;55725;42.758;26.702;2022-07-06T01:32:09;99081.00;;;15.00
68743;BMP180;55725;42.758;26.702;2022-07-06T01:33:50;99080.00;;;14.80
68743;BMP180;55725;42.758;26.702;2022-07-06T01:35:31;99082.00;;;16.00
68743;BMP180;55725;42.758;26.702;2022-07-06T01:37:13;99080.00;;;16.80
68743;BMP180;55725;42.758;26.702;2022-07-06T01:38:54;99086.00;;;16.20
68743;BMP180;55725;42.758;26.702;2022-07-06T01:40:34;99077.00;;;16.00
68743;BMP180;55725;42.758;26.702;2022-07-06T01:42:15;99080.00;;;14.60
68743;BMP180;55725;42.758;26.702;2022-07-06T01:43:57;99078.00;;;14.40
68743;BMP180;55725;42.758;26.702;2022-07-06T01:45:37;99072.00;;;14.00
68743;BMP180;55725;42.758;26.702;2022-07-06T01:47:18;99077.00;;;14.60
68743;BMP180;55725;42.758;26.702;2022-07-06T01:48:58;99075.00;;;14.70
68743;BMP180;55725;42.758;26.702;2022-07-06T01:50:39;99075.00;;;15.10
68743;BMP180;55725;42.758;26.702;2022-07-06T01:52:19;99068.00;;;14.80
68743;BMP180;55725;42.758;26.702;2022-07-06T01:53:59;99066.00;;;15.50
68743;BMP180;55725;42.758;26.702;2022-07-06T01:55:40;99072.00;;;15.10
68743;BMP180;55725;42.758;26.702;2022-07-06T01:57:20;99056.00;;;15.20
68743;BMP180;55725;42.758;26.702;2022-07-06T01:59:00;99053.00;;;15.00
68743;BMP180;55725;42.758;26.702;2022-07-06T02:00:41;99048.00;;;15.30
68743;BMP180;55725;42.758;26.702;2022-07-06T02:02:21;99057.00;;;15.40
68743;BMP180;55725;42.758;26.702;2022-07-06T02:04:01;99061.00;;;15.40
68743;BMP180;55725;42.758;26.702;2022-07-06T02:05:42;99061.00;;;15.50
68743;BMP180;55725;42.758;26.702;2022-07-06T02:07:22;99060.00;;;15.30
68743;BMP180;55725;42.758;26.702;2022-07-06T02:09:02;99055.00;;;15.20
68743;BMP180;55725;42.758;26.702;2022-07-06T02:10:43;99041.00;;;15.20
68743;BMP180;55725;42.758;26.702;2022-07-06T02:12:23;99057.00;;;15.10
68743;BMP180;55725;42.758;26.702;2022-07-06T02:14:03;99049.00;;;15.10
68743;BMP180;55725;42.758;26.702;2022-07-06T02:15:44;99051.00;;;14.70
68743;BMP180;55725;42.758;26.702;2022-07-06T02:17:24;99053.00;;;15.20
68743;BMP180;55725;42.758;26.702;2022-07-06T02:19:04;99052.00;;;15.20
68743;BMP180;55725;42.758;26.702;2022-07-06T02:20:45;99051.00;;;15.10
68743;BMP180;55725;42.758;26.702;2022-07-06T02:22:25;99040.00;;;15.10
68743;BMP180;55725;42.758;26.702;2022-07-06T02:24:06;99050.00;;;14.80
68743;BMP180;55725;42.758;26.702;2022-07-06T02:25:46;99042.00;;;15.10
68743;BMP180;55725;42.758;26.702;2022-07-06T02:27:26;99044.00;;;15.30
68743;BMP180;55725;42.758;26.702;2022-07-06T02:29:07;99050.00;;;15.50
68743;BMP180;55725;42.758;26.702;2022-07-06T02:30:47;99049.00;;;15.00
68743;BMP180;55725;42.758;26.702;2022-07-06T02:32:28;99033.00;;;14.80
68743;BMP180;55725;42.758;26.702;2022-07-06T02:34:08;99050.00;;;15.30
68743;BMP180;55725;42.758;26.702;2022-07-06T02:35:48;99037.00;;;15.20
68743;BMP180;55725;42.758;26.702;2022-07-06T02:37:29;99042.00;;;15.50
68743;BMP180;55725;42.758;26.702;2022-07-06T02:39:09;99039.00;;;15.80
68743;BMP180;55725;42.758;26.702;2022-07-06T02:40:49;99038.00;;;15.40
68743;BMP180;55725;42.758;26.702;2022-07-06T02:42:30;99036.00;;;15.20
68743;BMP180;55725;42.758;26.702;2022-07-06T02:44:10;99037.00;;;15.20
68743;BMP180;55725;42.758;26.702;2022-07-06T02:45:50;99034.00;;;14.90
68743;BMP180;55725;42.758;26.702;2022-07-06T02:47:31;99030.00;;;14.90
68743;BMP180;55725;42.758;26.702;2022-07-06T02:49:11;99029.00;;;14.80
68743;BMP180;55725;42.758;26.702;2022-07-06T02:50:51;99030.00;;;14.90
68743;BMP180;55725;42.758;26.702;2022-07-06T02:52:32;99033.00;;;15.10
68743;BMP180;55725;42.758;26.702;2022-07-06T02:54:12;99032.00;;;14.80
68743;BMP180;55725;42.758;26.702;2022-07-06T02:55:52;99027.00;;;14.70
68743;BMP180;55725;42.758;26.702;2022-07-06T02:57:33;99031.00;;;14.80
68743;BMP180;55725;42.758;26.702;2022-07-06T02:59:13;99036.00;;;14.80
68743;BMP180;55725;42.758;26.702;2022-07-06T03:00:53;99030.00;;;14.80
68743;BMP180;55725;42.758;26.702;2022-07-06T03:02:34;99037.00;;;14.50
68743;BMP180;55725;42.758;26.702;2022-07-06T03:04:14;99024.00;;;15.30
68743;BMP180;55725;42.758;26.702;2022-07-06T03:05:54;99029.00;;;15.60
68743;BMP180;55725;42.758;26.702;2022-07-06T03:07:35;99026.00;;;15.70
68743;BMP180;55725;42.758;26.702;2022-07-06T03:09:15;99026.00;;;15.10
68743;BMP180;55725;42.758;26.702;2022-07-06T03:10:55;99015.00;;;15.40
68743;BMP180;55725;42.758;26.702;2022-07-06T03:12:36;99026.00;;;15.40
68743;BMP180;55725;42.758;26.702;2022-07-06T03:14:16;99018.00;;;15.20
68743;BMP180;55725;42.758;26.702;2022-07-06T03:15:56;99018.00;;;15.90
68743;BMP180;55725;42.758;26.702;2022-07-06T03:17:37;99024.00;;;15.70
68743;BMP180;55725;42.758;26.702;2022-07-06T03:19:17;99023.00;;;15.80
68743;BMP180;55725;42.758;26.702;2022-07-06T03:20:57;99020.00;;;16.00
68743;BMP180;55725;42.758;26.702;2022-07-06T03:22:38;99008.00;;;15.90
68743;BMP180;55725;42.758;26.702;2022-07-06T03:24:18;99014.00;;;15.70
68743;BMP180;55725;42.758;26.702;2022-07-06T03:25:58;99022.00;;;15.80
68743;BMP180;55725;42.758;26.702;2022-07-06T03:27:39;99015.00;;;15.90
68743;BMP180;55725;42.758;26.702;2022-07-06T03:29:19;99008.00;;;15.90
68743;BMP180;55725;42.758;26.702;2022-07-06T03:31:00;99012.00;;;16.10
68743;BMP180;55725;42.758;26.702;2022-07-06T03:32:40;99014.00;;;15.90
68743;BMP180;55725;42.758;26.702;2022-07-06T03:34:21;99007.00;;;16.00
68743;BMP180;55725;42.758;26.702;2022-07-06T03:36:01;99014.00;;;16.00
68743;BMP180;55725;42.758;26.702;2022-07-06T03:37:41;99010.00;;;16.30
68743;BMP180;55725;42.758;26.702;2022-07-06T03:39:22;99013.00;;;16.30
68743;BMP180;55725;42.758;26.702;2022-07-06T03:41:02;99003.00;;;16.60
68743;BMP180;55725;42.758;26.702;2022-07-06T03:42:43;99012.00;;;16.20
68743;BMP180;55725;42.758;26.702;2022-07-06T03:44:23;99001.00;;;16.50
68743;BMP180;55725;42.758;26.702;2022-07-06T03:46:03;99006.00;;;16.60
68743;BMP180;55725;42.758;26.702;2022-07-06T03:47:44;99004.00;;;16.70
68743;BMP180;55725;42.758;26.702;2022-07-06T03:49:24;99001.00;;;16.80
68743;BMP180;55725;42.758;26.702;2022-07-06T03:51:07;98997.00;;;16.80
68743;BMP180;55725;42.758;26.702;2022-07-06T03:52:47;99004.00;;;17.00
68743;BMP180;55725;42.758;26.702;2022-07-06T03:54:27;99008.00;;;17.30
68743;BMP180;55725;42.758;26.702;2022-07-06T03:56:08;99010.00;;;17.10
68743;BMP180;55725;42.758;26.702;2022-07-06T03:58:07;99002.00;;;17.20
68743;BMP180;55725;42.758;26.702;2022-07-06T03:59:47;99008.00;;;17.40
68743;BMP180;55725;42.758;26.702;2022-07-06T04:01:28;98999.00;;;17.10
68743;BMP180;55725;42.758;26.702;2022-07-06T04:03:09;99006.00;;;17.20
68743;BMP180;55725;42.758;26.702;2022-07-06T04:04:50;98996.00;;;17.50
68743;BMP180;55725;42.758;26.702;2022-07-06T04:06:30;98992.00;;;17.30
68743;BMP180;55725;42.758;26.702;2022-07-06T04:08:10;99002.00;;;17.30
68743;BMP180;55725;42.758;26.702;2022-07-06T04:09:51;98994.00;;;17.50
68743;BMP180;55725;42.758;26.702;2022-07-06T04:11:31;99002.00;;;17.70
68743;BMP180;55725;42.758;26.702;2022-07-06T04:13:12;98991.00;;;17.70
68743;BMP180;55725;42.758;26.702;2022-07-06T04:14:52;98995.00;;;17.50
68743;BMP180;55725;42.758;26.702;2022-07-06T04:16:32;98994.00;;;17.80
68743;BMP180;55725;42.758;26.702;2022-07-06T04:18:13;98998.00;;;17.50
68743;BMP180;55725;42.758;26.702;2022-07-06T04:19:53;98992.00;;;18.00
68743;BMP180;55725;42.758;26.702;2022-07-06T04:21:33;98993.00;;;18.00
68743;BMP180;55725;42.758;26.702;2022-07-06T04:23:14;98991.00;;;18.10
68743;BMP180;55725;42.758;26.702;2022-07-06T04:24:54;98995.00;;;18.10
68743;BMP180;55725;42.758;26.702;2022-07-06T04:26:34;98993.00;;;18.20
68743;BMP180;55725;42.758;26.702;2022-07-06T04:28:15;98992.00;;;18.30
68743;BMP180;55725;42.758;26.702;2022-07-06T04:29:55;98997.00;;;18.30
68743;BMP180;55725;42.758;26.702;2022-07-06T04:31:35;98984.00;;;18.50
68743;BMP180;55725;42.758;26.702;2022-07-06T04:33:16;98998.00;;;18.70
68743;BMP180;55725;42.758;26.702;2022-07-06T04:34:56;99001.00;;;18.50
68743;BMP180;55725;42.758;26.702;2022-07-06T04:36:36;98994.00;;;18.80
68743;BMP180;55725;42.758;26.702;2022-07-06T04:38:17;98997.00;;;19.00
68743;BMP180;55725;42.758;26.702;2022-07-06T04:39:57;98997.00;;;18.90
68743;BMP180;55725;42.758;26.702;2022-07-06T04:41:38;98997.00;;;18.70
68743;BMP180;55725;42.758;26.702;2022-07-06T04:43:18;98998.00;;;18.80
68743;BMP180;55725;42.758;26.702;2022-07-06T04:44:58;99000.00;;;18.90
68743;BMP180;55725;42.758;26.702;2022-07-06T04:46:39;98998.00;;;19.10
68743;BMP180;55725;42.758;26.702;2022-07-06T04:48:19;98989.00;;;19.20
68743;BMP180;55725;42.758;26.702;2022-07-06T04:49:59;98991.00;;;19.30
68743;BMP180;55725;42.758;26.702;2022-07-06T04:51:39;98990.00;;;19.20
68743;BMP180;55725;42.758;26.702;2022-07-06T04:53:20;98995.00;;;19.30
68743;BMP180;55725;42.758;26.702;2022-07-06T04:55:00;98991.00;;;19.40
68743;BMP180;55725;42.758;26.702;2022-07-06T04:56:41;98992.00;;;19.30
68743;BMP180;55725;42.758;26.702;2022-07-06T04:58:21;98990.00;;;19.40
68743;BMP180;55725;42.758;26.702;2022-07-06T05:00:02;98992.00;;;19.80
68743;BMP180;55725;42.758;26.702;2022-07-06T05:01:42;98997.00;;;20.00
68743;BMP180;55725;42.758;26.702;2022-07-06T05:03:22;98991.00;;;20.10
68743;BMP180;55725;42.758;26.702;2022-07-06T05:05:03;98991.00;;;20.20
68743;BMP180;55725;42.758;26.702;2022-07-06T05:06:43;98989.00;;;20.20
68743;BMP180;55725;42.758;26.702;2022-07-06T05:08:24;98985.00;;;20.40
68743;BMP180;55725;42.758;26.702;2022-07-06T05:10:05;98991.00;;;20.40
68743;BMP180;55725;42.758;26.702;2022-07-06T05:11:45;98983.00;;;20.60
68743;BMP180;55725;42.758;26.702;2022-07-06T05:13:26;98981.00;;;20.80
68743;BMP180;55725;42.758;26.702;2022-07-06T05:15:06;98978.00;;;20.90
68743;BMP180;55725;42.758;26.702;2022-07-06T05:16:47;98987.00;;;21.10
68743;BMP180;55725;42.758;26.702;2022-07-06T05:18:27;98980.00;;;21.10
68743;BMP180;55725;42.758;26.702;2022-07-06T05:20:07;98992.00;;;21.20
68743;BMP180;55725;42.758;26.702;2022-07-06T05:21:48;98991.00;;;21.30
68743;BMP180;55725;42.758;26.702;2022-07-06T05:23:28;98995.00;;;21.40
68743;BMP180;55725;42.758;26.702;2022-07-06T05:25:08;98989.00;;;21.60
68743;BMP180;55725;42.758;26.702;2022-07-06T05:26:49;98989.00;;;21.90
68743;BMP180;55725;42.758;26.702;2022-07-06T05:28:29;98994.00;;;22.00
68743;BMP180;55725;42.758;26.702;2022-07-06T05:30:10;98991.00;;;22.10
68743;BMP180;55725;42.758;26.702;2022-07-06T05:31:50;98988.00;;;22.10
68743;BMP180;55725;42.758;26.702;2022-07-06T05:33:31;98995.00;;;22.40
68743;BMP180;55725;42.758;26.702;2022-07-06T05:35:11;98990.00;;;22.50
68743;BMP180;55725;42.758;26.702;2022-07-06T05:36:51;98987.00;;;22.50
68743;BMP180;55725;42.758;26.702;2022-07-06T05:38:32;98991.00;;;22.70
68743;BMP180;55725;42.758;26.702;2022-07-06T05:40:12;98987.00;;;22.80
68743;BMP180;55725;42.758;26.702;2022-07-06T05:41:52;98987.00;;;22.90
68743;BMP180;55725;42.758;26.702;2022-07-06T05:43:35;98982.00;;;23.00
68743;BMP180;55725;42.758;26.702;2022-07-06T05:45:15;98983.00;;;23.10
68743;BMP180;55725;42.758;26.702;2022-07-06T05:46:55;98984.00;;;23.40
68743;BMP180;55725;42.758;26.702;2022-07-06T05:48:56;98992.00;;;23.60
68743;BMP180;55725;42.758;26.702;2022-07-06T05:50:54;98980.00;;;23.60
68743;BMP180;55725;42.758;26.702;2022-07-06T05:52:35;98974.00;;;23.60
68743;BMP180;55725;42.758;26.702;2022-07-06T05:54:15;98974.00;;;23.60
68743;BMP180;55725;42.758;26.702;2022-07-06T05:55:56;98985.00;;;23.70
68743;BMP180;55725;42.758;26.702;2022-07-06T05:57:36;98988.00;;;23.80
68743;BMP180;55725;42.758;26.702;2022-07-06T05:59:17;98982.00;;;24.10
68743;BMP180;55725;42.758;26.702;2022-07-06T06:00:57;98988.00;;;24.10
68743;BMP180;55725;42.758;26.702;2022-07-06T06:02:38;98987.00;;;24.40
68743;BMP180;55725;42.758;26.702;2022-07-06T06:04:18;98978.00;;;24.10
68743;BMP180;55725;42.758;26.702;2022-07-06T06:05:59;98988.00;;;24.50
68743;BMP180;55725;42.758;26.702;2022-07-06T06:07:39;98987.00;;;24.70
68743;BMP180;55725;42.758;26.702;2022-07-06T06:09:20;98985.00;;;24.60
68743;BMP180;55725;42.758;26.702;2022-07-06T06:11:00;98983.00;;;24.50
68743;BMP180;55725;42.758;26.702;2022-07-06T06:12:41;98975.00;;;24.70
68743;BMP180;55725;42.758;26.702;2022-07-06T06:14:21;98980.00;;;24.90
68743;BMP180;55725;42.758;26.702;2022-07-06T06:16:01;98969.00;;;25.10
68743;BMP180;55725;42.758;26.702;2022-07-06T06:17:42;98974.00;;;24.90
68743;BMP180;55725;42.758;26.702;2022-07-06T06:19:22;98978.00;;;25.30
68743;BMP180;55725;42.758;26.702;2022-07-06T06:21:03;98973.00;;;25.20
68743;BMP180;55725;42.758;26.702;2022-07-06T06:22:44;98973.00;;;25.20
68743;BMP180;55725;42.758;26.702;2022-07-06T06:24:24;98975.00;;;25.10
68743;BMP180;55725;42.758;26.702;2022-07-06T06:26:08;98978.00;;;25.40
68743;BMP180;55725;42.758;26.702;2022-07-06T06:27:48;98980.00;;;25.40
68743;BMP180;55725;42.758;26.702;2022-07-06T06:29:28;98973.00;;;25.80
68743;BMP180;55725;42.758;26.702;2022-07-06T06:31:09;98971.00;;;25.60
68743;BMP180;55725;42.758;26.702;2022-07-06T06:32:49;98974.00;;;26.10
68743;BMP180;55725;42.758;26.702;2022-07-06T06:34:30;98974.00;;;26.30
68743;BMP180;55725;42.758;26.702;2022-07-06T06:36:10;98984.00;;;26.60
68743;BMP180;55725;42.758;26.702;2022-07-06T06:37:50;98972.00;;;26.40
68743;BMP180;55725;42.758;26.702;2022-07-06T06:39:31;98974.00;;;26.90
68743;BMP180;55725;42.758;26.702;2022-07-06T06:41:11;98972.00;;;26.60
68743;BMP180;55725;42.758;26.702;2022-07-06T06:42:52;98970.00;;;26.40
68743;BMP180;55725;42.758;26.702;2022-07-06T06:44:32;98971.00;;;26.90
68743;BMP180;55725;42.758;26.702;2022-07-06T06:46:13;98973.00;;;27.10
68743;BMP180;55725;42.758;26.702;2022-07-06T06:47:53;98968.00;;;27.20
68743;BMP180;55725;42.758;26.702;2022-07-06T06:49:33;98976.00;;;27.50
68743;BMP180;55725;42.758;26.702;2022-07-06T06:51:14;98973.00;;;27.60
68743;BMP180;55725;42.758;26.702;2022-07-06T06:52:54;98970.00;;;27.60
68743;BMP180;55725;42.758;26.702;2022-07-06T06:54:34;98974.00;;;27.80
68743;BMP180;55725;42.758;26.702;2022-07-06T06:56:15;98972.00;;;27.70
68743;BMP180;55725;42.758;26.702;2022-07-06T06:57:55;98980.00;;;27.80
68743;BMP180;55725;42.758;26.702;2022-07-06T06:59:35;98979.00;;;28.00
68743;BMP180;55725;42.758;26.702;2022-07-06T07:01:16;98973.00;;;27.60
68743;BMP180;55725;42.758;26.702;2022-07-06T07:02:56;98971.00;;;27.50
68743;BMP180;55725;42.758;26.702;2022-07-06T07:04:37;98984.00;;;27.60
68743;BMP180;55725;42.758;26.702;2022-07-06T07:06:17;98985.00;;;28.10
68743;BMP180;55725;42.758;26.702;2022-07-06T07:07:57;98982.00;;;28.00
68743;BMP180;55725;42.758;26.702;2022-07-06T07:09:39;98981.00;;;28.10
68743;BMP180;55725;42.758;26.702;2022-07-06T07:11:19;98977.00;;;28.10
68743;BMP180;55725;42.758;26.702;2022-07-06T07:12:59;98981.00;;;27.70
68743;BMP180;55725;42.758;26.702;2022-07-06T07:14:40;98975.00;;;28.30
68743;BMP180;55725;42.758;26.702;2022-07-06T07:16:21;98979.00;;;28.30
68743;BMP180;55725;42.758;26.702;2022-07-06T07:18:01;98987.00;;;28.30
68743;BMP180;55725;42.758;26.702;2022-07-06T07:19:41;98978.00;;;28.50
68743;BMP180;55725;42.758;26.702;2022-07-06T07:21:22;98975.00;;;28.50
68743;BMP180;55725;42.758;26.702;2022-07-06T07:23:02;98972.00;;;28.40
68743;BMP180;55725;42.758;26.702;2022-07-06T07:24:42;98973.00;;;28.10
68743;BMP180;55725;42.758;26.702;2022-07-06T07:26:23;98985.00;;;27.80
68743;BMP180;55725;42.758;26.702;2022-07-06T07:28:03;98984.00;;;28.10
68743;BMP180;55725;42.758;26.702;2022-07-06T07:29:43;98974.00;;;28.40
68743;BMP180;55725;42.758;26.702;2022-07-06T07:31:24;98979.00;;;28.40
68743;BMP180;55725;42.758;26.702;2022-07-06T07:33:04;98985.00;;;28.70
68743;BMP180;55725;42.758;26.702;2022-07-06T07:34:45;98987.00;;;28.70
68743;BMP180;55725;42.758;26.702;2022-07-06T07:36:25;98977.00;;;28.60
68743;BMP180;55725;42.758;26.702;2022-07-06T07:38:06;98980.00;;;28.70
68743;BMP180;55725;42.758;26.702;2022-07-06T07:39:46;98987.00;;;28.50
68743;BMP180;55725;42.758;26.702;2022-07-06T07:41:26;98976.00;;;29.00
68743;BMP180;55725;42.758;26.702;2022-07-06T07:43:07;98979.00;;;29.30
68743;BMP180;55725;42.758;26.702;2022-07-06T07:44:47;98985.00;;;29.20
68743;BMP180;55725;42.758;26.702;2022-07-06T07:46:27;98983.00;;;29.20
68743;BMP180;55725;42.758;26.702;2022-07-06T07:48:08;98980.00;;;29.50
68743;BMP180;55725;42.758;26.702;2022-07-06T07:49:48;98976.00;;;28.90
68743;BMP180;55725;42.758;26.702;2022-07-06T07:51:28;98984.00;;;28.80
68743;BMP180;55725;42.758;26.702;2022-07-06T07:53:09;98972.00;;;28.90
68743;BMP180;55725;42.758;26.702;2022-07-06T07:54:49;98973.00;;;29.00
68743;BMP180;55725;42.758;26.702;2022-07-06T07:56:29;98973.00;;;29.40
68743;BMP180;55725;42.758;26.702;2022-07-06T07:58:10;98971.00;;;29.40
68743;BMP180;55725;42.758;26.702;2022-07-06T07:59:50;98977.00;;;29.60
68743;BMP180;55725;42.758;26.702;2022-07-06T08:01:30;98980.00;;;29.60
68743;BMP180;55725;42.758;26.702;2022-07-06T08:03:11;98971.00;;;29.10
68743;BMP180;55725;42.758;26.702;2022-07-06T08:04:51;98978.00;;;29.50
68743;BMP180;55725;42.758;26.702;2022-07-06T08:06:31;98971.00;;;30.00
68743;BMP180;55725;42.758;26.702;2022-07-06T08:08:12;98964.00;;;29.70
68743;BMP180;55725;42.758;26.702;2022-07-06T08:09:52;98968.00;;;29.80
68743;BMP180;55725;42.758;26.702;2022-07-06T08:11:35;98970.00;;;30.10
68743;BMP180;55725;42.758;26.702;2022-07-06T08:13:16;98974.00;;;30.30
68743;BMP180;55725;42.758;26.702;2022-07-06T08:14:56;98974.00;;;30.30
68743;BMP180;55725;42.758;26.702;2022-07-06T08:16:37;98977.00;;;29.80
68743;BMP180;55725;42.758;26.702;2022-07-06T08:18:17;98978.00;;;29.80
68743;BMP180;55725;42.758;26.702;2022-07-06T08:19:57;98973.00;;;30.10
68743;BMP180;55725;42.758;26.702;2022-07-06T08:21:38;98977.00;;;30.50
68743;BMP180;55725;42.758;26.702;2022-07-06T08:23:18;98974.00;;;30.20
68743;BMP180;55725;42.758;26.702;2022-07-06T08:24:58;98971.00;;;30.40
68743;BMP180;55725;42.758;26.702;2022-07-06T08:26:39;98972.00;;;30.30
68743;BMP180;55725;42.758;26.702;2022-07-06T08:28:19;98968.00;;;30.60
68743;BMP180;55725;42.758;26.702;2022-07-06T08:29:59;98968.00;;;30.60
68743;BMP180;55725;42.758;26.702;2022-07-06T08:31:40;98974.00;;;30.90
68743;BMP180;55725;42.758;26.702;2022-07-06T08:33:20;98952.00;;;31.10
68743;BMP180;55725;42.758;26.702;2022-07-06T08:35:01;98963.00;;;31.20
68743;BMP180;55725;42.758;26.702;2022-07-06T08:36:41;99028.00;;;30.30
68743;BMP180;55725;42.758;26.702;2022-07-06T08:38:21;98957.00;;;30.30
68743;BMP180;55725;42.758;26.702;2022-07-06T08:40:02;98961.00;;;30.10
68743;BMP180;55725;42.758;26.702;2022-07-06T08:41:43;98965.00;;;30.80
68743;BMP180;55725;42.758;26.702;2022-07-06T08:43:27;98957.00;;;30.90
68743;BMP180;55725;42.758;26.702;2022-07-06T08:45:07;98956.00;;;30.70
68743;BMP180;55725;42.758;26.702;2022-07-06T08:46:48;98960.00;;;31.10
68743;BMP180;55725;42.758;26.702;2022-07-06T08:48:29;98959.00;;;31.00
68743;BMP180;55725;42.758;26.702;2022-07-06T08:50:14;98944.00;;;30.70
68743;BMP180;55725;42.758;26.702;2022-07-06T08:51:56;98968.00;;;31.00
68743;BMP180;55725;42.758;26.702;2022-07-06T08:53:37;98955.00;;;31.00
68743;BMP180;55725;42.758;26.702;2022-07-06T08:55:17;98953.00;;;31.00
68743;BMP180;55725;42.758;26.702;2022-07-06T08:56:58;98950.00;;;30.90
68743;BMP180;55725;42.758;26.702;2022-07-06T08:58:39;98952.00;;;30.50
68743;BMP180;55725;42.758;26.702;2022-07-06T09:00:22;98962.00;;;30.70
68743;BMP180;55725;42.758;26.702;2022-07-06T09:02:03;98954.00;;;30.80
68743;BMP180;55725;42.758;26.702;2022-07-06T09:03:43;98959.00;;;30.80
68743;BMP180;55725;42.758;26.702;2022-07-06T09:05:25;98953.00;;;30.60
68743;BMP180;55725;42.758;26.702;2022-07-06T09:07:06;98950.00;;;30.90
68743;BMP180;55725;42.758;26.702;2022-07-06T09:08:47;98948.00;;;31.20
68743;BMP180;55725;42.758;26.702;2022-07-06T09:10:29;98954.00;;;31.30
68743;BMP180;55725;42.758;26.702;2022-07-06T09:12:12;98948.00;;;31.10
68743;BMP180;55725;42.758;26.702;2022-07-06T09:13:55;98959.00;;;31.20
68743;BMP180;55725;42.758;26.702;2022-07-06T09:15:37;98953.00;;;31.80
68743;BMP180;55725;42.758;26.702;2022-07-06T09:17:19;98948.00;;;31.20
68743;BMP180;55725;42.758;26.702;2022-07-06T09:18:59;98946.00;;;31.60
68743;BMP180;55725;42.758;26.702;2022-07-06T09:20:40;98949.00;;;31.00
68743;BMP180;55725;42.758;26.702;2022-07-06T09:22:24;98952.00;;;31.30
68743;BMP180;55725;42.758;26.702;2022-07-06T09:24:06;98958.00;;;31.30
68743;BMP180;55725;42.758;26.702;2022-07-06T09:25:47;98959.00;;;31.50
68743;BMP180;55725;42.758;26.702;2022-07-06T09:27:29;98955.00;;;31.80
68743;BMP180;55725;42.758;26.702;2022-07-06T09:29:09;98950.00;;;31.90
68743;BMP180;55725;42.758;26.702;2022-07-06T09:30:53;98954.00;;;31.70
68743;BMP180;55725;42.758;26.702;2022-07-06T09:32:41;98945.00;;;31.20